Ringmer, United Kingdom
Current Conditions -  °F | °C
As of 4:20 PM on Wednesday 28 Jan 2015 (Local Time) from EGKA Reporting Station
Few Clouds Few Clouds  
Wind Chill:   Ceiling: Unl
Heat Index:   Visibility: 6mi
Dew Point: -2°   Wind: 16mph
Humidity: 61%   Direction: 290°WNW
Pressure: 29.65"   Gusts: NA
Location:  50.89°N, 0.06°E
Report Text: EGKA 281620Z 29014KT 9999 FEW020 05/M02 Q1004
Loading
Personal Weather Stations






























Interactive Weather Map New forecast layout! Learn more

10-Day Weather Forecast

Advertisements
Track Severe Weather on mobile